메인 페이지
METAR-TAF:

METAR-TAF

공항 :

마드리드 바라하스 국제공항

마드리드, 스페인

위도: 40-27N, 경도: 003-33W, 고도: 609m

현재 날씨관측

예보는 34분 전, 16:00시(UTC)에 발표되었습니다.
무풍
온도 20°C
습도 23%
기압 1028 hPa
시정 10km 이상
1500m 미만 상공 구름 및 적란운 없음

METAR: LEMD 211600Z 00000KT CAVOK 20/M02 Q1028 NOSIG

시각: 17:34 (16:34 UTC)

예보

예보는 5 시간 34분 전, 11:00시(UTC)에 발표되었습니다.
예보 대상 시간: 21일 12시부터 22일 18시까지 (UTC)
여러 방향의 바람 4kt
시정 10km 이상
1500m 미만 상공 구름 및 적란운 없음
일시적
21일 19시부터 22일 07시까지 (UTC)
북북동7kt

TAF: LEMD 211100Z 2112/2218 VRB04KT CAVOK TX20/2216Z TNM01/2206Z TEMPO 2119/2207 02007KT

4,000개 이상의 공항 관측 자료 및 예보 (METAR 및 TAF 보고).

지도상에서 검색 가능한 기상관측소가 노란 점과 빨간 점으로 표시되어 있습니다.

기상관측소 명을 보려면 표시 위로 마우스를 이동하세요.

날씨 관측과 예보를 보려면 클릭하세요.

지도 변경 : 확대하려면 엑스 표시가 있는 녹색 버튼, 축소하려면 빼기 표시가 있는 녹색 버튼, 다음 페이지의 지도를 보려면 녹색 화살표를 클릭하세요.


METAR-TAF: